Relevés horaires Eggishorn (Suisse)


Relevés horaires à Eggishorn - Lundi 02 Mars 2015
Heure UTC1 Température [°C] Vent [km/h] Hum. [%] Pres.4 [hPa] Visi. [Km] Nébu. [octa] Préc.5 [mm] Cond.
2m. Res. Ros. Dir.2 Vit. Moy. Raf.3
23:00 -12.2 -19.4 -13.7 ONO 14.8 27.8 53.7 89 700(2.1/3h) -- -- -- --
22:00 -11.9 -20.3 -12.8 ONO 20.4 33.3 51.9 93 700(2.2/3h) -- -- -- --
21:00 -11.4 -19.3 -12.7 NO 18.5 38.9 85.2 90 700(2.2/3h) -- -- -- --
20:00 -11.3 -21.2 -12.9 ONO 29.6 38.9 85.2 88 700(1.5/3h) -- -- -- --
19:00 -10.7 -20.9 -12.5 NO 33.3 33.3 63.0 87 700(1.6/3h) -- -- -- --
18:00 -10.7 -22.2 -13.6 NNO 44.4 50.0 81.5 79 700(1.2/3h) -- -- -- --
17:00 -10.8 -20.2 -11.7 ONO 27.8 29.6 61.1 93 700(1.3/3h) -- -- -- --
16:00 -10.2 -19.7 -10.7 ONO 29.6 42.6 70.4 96 700(0.7/3h) -- -- -- --
15:00 -9.6 -20.5 -12.2 NNO 42.6 50.0 81.5 81 700(-0.2/3h) -- -- -- --
14:00 -8.0 -16.6 -8.1 ONO 27.8 27.8 50.0 99 700(-0.3/3h) -- -- -- --
13:00 -7.9 -16.2 -8.1 NO 25.9 42.6 81.5 98 700(-0.8/3h) -- -- -- --
12:00 -7.5 -16.9 -7.7 O 35.2 51.9 96.3 98 700(-0.3/3h) -- -- -- --
11:00 -6.5 -17.2 -7.7 O 51.9 51.9 88.9 91 700(0.0/3h) -- -- -- --
10:00 -6.4 -16.5 -7.0 O 46.3 46.3 96.3 95 700(0.6/3h) -- -- -- --
09:00 -5.5 -14.4 -6.2 NNO 37.0 37.0 68.5 95 700(0.8/3h) -- -- -- --
08:00 -5.4 -13.2 -5.6 NNO 27.8 29.6 55.6 98 700(-0.1/3h) -- -- -- --
07:00 -4.9 -12.6 -4.9 O 27.8 31.5 64.8 100 700(-0.7/3h) -- -- -- --
06:00 -5.1 -13.5 -5.1 O 33.3 40.7 70.4 100 700(-1.3/3h) -- -- -- --
05:00 -5.2 -13 -5.2 O 27.8 27.8 46.3 100 700(-1.2/3h) -- -- -- --
04:00 -5.1 -12 -5.1 O 22.2 37.0 57.4 100 700(-1.2/3h) -- -- -- --
03:00 -5.1 -13.3 -5.5 O 31.5 40.7 70.4 97 700(-1.3/3h) -- -- -- --
02:00 -5.1 -14.3 -5.1 O 40.7 40.7 64.8 100 700(-1.2/3h) -- -- -- --
01:00 -5.2 -13 -5.2 O 27.8 29.6 50.0 100 700(-1.3/3h) -- -- -- --
00:00 -5.4 -13 -5.4 O 25.9 42.6 68.5 100 700(-1.0/3h) -- -- -- --

1 Coordinated Universal Time. Actuellement il est 08:00 locale et 06:00 UTC.

2 Le vent souffle depuis la direction indiquée vers la direction oposée.

3 Les rafales max. sont disponible 40 min après l'heure du relevé.

4 Pour les stations d'altitude (plus de 600m) le géopotentiel du niveau le plus proche de la pression obligatoire est indiqué.

5 Les stations disposant d'un diffuseur peuvent indiquer "trace". Cela signifie que des précipitations ont touchés le sol mais que la quantité est inférieure à 0.1 mm.

Copyright

Les données affichées sur cette page sont la propriété exclusive de Météo Suisse.

Récapitulatif de la journée
Température [°C] Vent [km/h] Ensoleillement4 [h] Precipitations totale5 [mm] Pression [Hpa]
Min1 Max.2 Moy.3 Max. Min Max.
-5.8 -4.8 38.4 96.3 0 h 12 min 0 700.0 700.0

1 Température minimale relevée entre 18:00 UTC la veille et 18:00 UTC le jour donné.

2 Température maximale relevée entre 06:00 UTC le jour donné et 06:00 UTC le lendemain.

3 Vent moyen de la journée basé sur les relevés horaires.

4 Ensoleillement en heures relevé entre 06:00 UTC la veille et 06:00 UTC le jour donné.

5 Précipitations totales tombées entre 06:00 UTC la jour donné et 06:00 UTC le lendemain.

Graphiques horaires